createdAt,value
2018-10-05T00:00:12.077Z,11.20
2018-10-05T00:03:15.171Z,11.23
2018-10-05T00:06:18.337Z,10.57
2018-10-05T00:09:21.434Z,9.77
2018-10-05T00:12:24.523Z,8.67
2018-10-05T00:15:27.611Z,8.90
2018-10-05T00:18:30.678Z,14.70
2018-10-05T00:21:33.801Z,39.30
2018-10-05T00:24:36.914Z,24.83
2018-10-05T00:27:40.045Z,22.03
2018-10-05T00:30:43.129Z,20.73
2018-10-05T00:33:47.309Z,18.50
2018-10-05T00:36:50.400Z,17.63
2018-10-05T00:39:53.556Z,16.37
2018-10-05T00:42:56.852Z,15.30
2018-10-05T00:46:00.046Z,13.83
2018-10-05T00:49:03.148Z,13.30
2018-10-05T00:52:06.280Z,12.70
2018-10-05T00:55:09.400Z,11.93
2018-10-05T00:58:12.470Z,11.50
2018-10-05T01:01:15.589Z,9.70
2018-10-05T01:04:18.701Z,10.60
2018-10-05T01:07:21.796Z,9.13
2018-10-05T01:10:24.896Z,9.57
2018-10-05T01:13:28.093Z,8.50
2018-10-05T01:16:31.180Z,8.80
2018-10-05T01:19:35.359Z,9.17
2018-10-05T01:22:38.434Z,7.70
2018-10-05T01:25:41.635Z,7.30
2018-10-05T01:28:44.783Z,7.53
2018-10-05T01:31:47.900Z,7.00
2018-10-05T01:34:51.151Z,7.27
2018-10-05T01:37:54.263Z,7.00
2018-10-05T01:40:57.372Z,6.63
2018-10-05T01:44:00.467Z,6.00
2018-10-05T01:47:03.671Z,6.27
2018-10-05T01:50:06.812Z,6.20
2018-10-05T01:53:09.885Z,6.43
2018-10-05T01:56:13.111Z,6.33
2018-10-05T01:59:16.227Z,5.93
2018-10-05T02:02:19.324Z,6.10
2018-10-05T02:05:22.586Z,5.63
2018-10-05T02:08:25.704Z,5.73
2018-10-05T02:11:28.779Z,5.93
2018-10-05T02:14:31.942Z,6.20
2018-10-05T02:17:35.035Z,6.10
2018-10-05T02:20:38.152Z,5.53
2018-10-05T02:23:41.559Z,5.20
2018-10-05T02:26:44.719Z,4.80
2018-10-05T02:29:47.819Z,5.57
2018-10-05T02:32:50.942Z,4.80
2018-10-05T02:35:54.139Z,5.27
2018-10-05T02:38:57.280Z,5.13
2018-10-05T02:42:00.453Z,5.53
2018-10-05T02:45:03.544Z,5.63
2018-10-05T02:48:06.745Z,6.60
2018-10-05T02:51:09.861Z,5.60
2018-10-05T02:54:12.957Z,5.53
2018-10-05T02:57:16.066Z,6.27
2018-10-05T03:00:30.604Z,5.83
2018-10-05T03:03:33.692Z,5.40
2018-10-05T03:06:36.839Z,5.83
2018-10-05T03:09:40.019Z,6.00
2018-10-05T03:12:43.120Z,5.87
2018-10-05T03:15:46.215Z,6.13
2018-10-05T03:18:49.425Z,6.03
2018-10-05T03:21:52.512Z,5.33
2018-10-05T03:24:55.606Z,5.20
2018-10-05T03:27:58.756Z,5.10
2018-10-05T03:31:01.916Z,5.20
2018-10-05T03:34:05.246Z,5.00
2018-10-05T03:37:08.373Z,5.17
2018-10-05T03:40:11.561Z,4.67
2018-10-05T03:43:14.885Z,4.93
2018-10-05T03:46:17.983Z,4.40
2018-10-05T03:49:21.140Z,4.30
2018-10-05T03:52:24.276Z,4.20
2018-10-05T03:55:27.353Z,4.17
2018-10-05T03:58:30.505Z,3.50
2018-10-05T04:01:33.692Z,3.67
2018-10-05T04:04:36.819Z,4.00
2018-10-05T04:07:39.995Z,4.33
2018-10-05T04:10:43.066Z,4.07
2018-10-05T04:13:46.176Z,4.07
2018-10-05T04:16:49.269Z,4.03
2018-10-05T04:19:52.337Z,4.10
2018-10-05T04:22:55.434Z,3.70
2018-10-05T04:25:58.523Z,3.80
2018-10-05T04:29:01.645Z,3.87
2018-10-05T04:32:04.997Z,3.60
2018-10-05T04:35:10.184Z,3.73
2018-10-05T04:38:13.263Z,3.97
2018-10-05T04:41:16.395Z,3.83
2018-10-05T04:44:19.493Z,3.87
2018-10-05T04:47:22.720Z,4.40
2018-10-05T04:50:25.804Z,4.27
2018-10-05T04:53:28.977Z,4.30
2018-10-05T04:56:32.098Z,4.40
2018-10-05T04:59:35.283Z,4.70
2018-10-05T05:02:38.363Z,4.50
2018-10-05T05:05:41.481Z,4.57
2018-10-05T05:08:44.563Z,4.40
2018-10-05T05:11:47.662Z,4.27
2018-10-05T05:14:50.756Z,4.90
2018-10-05T05:17:53.928Z,4.73
2018-10-05T05:20:57.093Z,4.73
2018-10-05T05:24:00.305Z,5.03
2018-10-05T05:27:03.514Z,4.23
2018-10-05T05:30:07.116Z,4.00
2018-10-05T05:33:10.337Z,4.10
2018-10-05T05:36:13.449Z,3.67
2018-10-05T05:39:16.529Z,3.83
2018-10-05T05:42:19.625Z,3.80
2018-10-05T05:45:22.755Z,4.87
2018-10-05T05:48:25.873Z,8.30
2018-10-05T05:51:29.020Z,9.50
2018-10-05T05:54:32.176Z,8.83
2018-10-05T05:57:35.303Z,7.77
2018-10-05T06:00:38.421Z,7.33
2018-10-05T06:03:42.627Z,6.90
2018-10-05T06:06:45.761Z,6.37
2018-10-05T06:09:49.013Z,5.77
2018-10-05T06:12:52.090Z,6.23
2018-10-05T06:15:55.847Z,5.67
2018-10-05T06:18:58.968Z,6.10
2018-10-05T06:22:02.326Z,5.47
2018-10-05T06:25:05.401Z,5.60
2018-10-05T06:28:08.953Z,5.50
2018-10-05T06:31:12.136Z,5.70
2018-10-05T06:34:15.300Z,5.27
2018-10-05T06:37:18.409Z,4.87
2018-10-05T06:40:21.507Z,4.67
2018-10-05T06:43:24.853Z,4.60
2018-10-05T06:46:28.016Z,4.87
2018-10-05T06:49:31.137Z,4.60
2018-10-05T06:52:34.250Z,4.67
2018-10-05T06:55:37.379Z,4.57
2018-10-05T06:58:40.503Z,4.10
2018-10-05T07:01:43.594Z,4.20
2018-10-05T07:04:46.734Z,4.40
2018-10-05T07:07:50.077Z,4.50
2018-10-05T07:10:53.198Z,4.13
2018-10-05T07:13:56.317Z,4.10
2018-10-05T07:16:59.457Z,4.40
2018-10-05T07:20:02.582Z,3.60
2018-10-05T07:23:05.681Z,4.17
2018-10-05T07:26:08.768Z,4.00
2018-10-05T07:29:11.930Z,3.83
2018-10-05T07:32:15.032Z,3.77
2018-10-05T07:35:18.136Z,3.60
2018-10-05T07:38:21.248Z,3.30
2018-10-05T07:41:24.427Z,3.23
2018-10-05T07:44:27.603Z,3.57
2018-10-05T07:47:30.715Z,3.30
2018-10-05T07:50:33.860Z,3.30
2018-10-05T07:53:36.957Z,3.33
2018-10-05T07:56:40.064Z,3.40
2018-10-05T07:59:43.151Z,3.10
2018-10-05T08:02:46.240Z,3.37
2018-10-05T08:05:49.358Z,3.40
2018-10-05T08:08:53.474Z,2.90
2018-10-05T08:11:56.628Z,3.10
2018-10-05T08:14:59.761Z,3.40
2018-10-05T08:18:02.854Z,3.07
2018-10-05T08:21:06.009Z,3.27
2018-10-05T08:24:09.132Z,3.33
2018-10-05T08:27:12.299Z,3.00
2018-10-05T08:30:15.358Z,3.30
2018-10-05T08:33:19.557Z,3.00
2018-10-05T08:36:23.763Z,3.00
2018-10-05T08:39:26.890Z,3.27
2018-10-05T08:42:30.050Z,3.10
2018-10-05T08:45:33.316Z,3.23
2018-10-05T08:48:36.377Z,2.97
2018-10-05T08:51:39.567Z,3.10
2018-10-05T08:54:42.643Z,3.00
2018-10-05T08:57:45.862Z,3.30
2018-10-05T09:00:48.956Z,2.87
2018-10-05T09:03:53.197Z,3.30
2018-10-05T09:06:58.814Z,3.23
2018-10-05T09:10:01.954Z,2.90
2018-10-05T09:13:05.078Z,2.73
2018-10-05T09:16:08.168Z,2.67
2018-10-05T09:19:11.312Z,2.37
2018-10-05T09:22:14.448Z,2.87
2018-10-05T09:25:17.523Z,2.70
2018-10-05T09:28:20.649Z,3.00
2018-10-05T09:31:24.801Z,2.77
2018-10-05T09:34:27.933Z,2.90
2018-10-05T09:37:31.156Z,2.63
2018-10-05T09:40:34.172Z,2.90
2018-10-05T09:43:37.367Z,2.93
2018-10-05T09:46:40.517Z,2.90
2018-10-05T09:49:43.649Z,2.70
2018-10-05T09:52:46.874Z,2.60
2018-10-05T09:55:49.964Z,2.60
2018-10-05T09:58:53.061Z,2.70
2018-10-05T10:02:01.588Z,2.47
2018-10-05T10:05:04.704Z,2.53
2018-10-05T10:08:07.869Z,2.63
2018-10-05T10:11:10.943Z,2.50
2018-10-05T10:14:14.026Z,2.57
2018-10-05T10:17:17.159Z,2.70
2018-10-05T10:20:20.291Z,2.50
2018-10-05T10:23:23.475Z,2.50
2018-10-05T10:26:26.623Z,2.77
2018-10-05T10:29:29.845Z,2.53
2018-10-05T10:32:32.873Z,2.40
2018-10-05T10:35:36.013Z,2.63
2018-10-05T10:38:39.151Z,2.50
2018-10-05T10:41:42.252Z,2.20
2018-10-05T10:44:45.347Z,2.40
2018-10-05T10:47:48.449Z,2.57
2018-10-05T10:50:51.556Z,2.77
2018-10-05T10:53:54.699Z,2.43
2018-10-05T10:56:57.810Z,2.37
2018-10-05T11:00:00.901Z,2.50
2018-10-05T11:03:04.387Z,2.70
2018-10-05T11:06:07.586Z,2.37
2018-10-05T11:09:10.708Z,2.47
2018-10-05T11:12:13.856Z,2.40
2018-10-05T11:15:16.964Z,2.40
2018-10-05T11:18:20.101Z,2.27
2018-10-05T11:21:23.232Z,2.27
2018-10-05T11:24:26.353Z,2.40
2018-10-05T11:27:29.537Z,2.47
2018-10-05T11:30:32.696Z,2.60
2018-10-05T11:33:35.817Z,2.23
2018-10-05T11:36:38.955Z,2.63
2018-10-05T11:39:42.068Z,2.20
2018-10-05T11:42:45.161Z,1.90
2018-10-05T11:45:48.248Z,2.33
2018-10-05T11:48:51.344Z,2.30
2018-10-05T11:51:54.586Z,2.40
2018-10-05T11:54:57.803Z,2.30
2018-10-05T11:58:00.884Z,2.33
2018-10-05T12:01:04.056Z,2.40
2018-10-05T12:04:07.150Z,2.10
2018-10-05T12:07:10.241Z,2.20
2018-10-05T12:10:13.736Z,2.20
2018-10-05T12:13:24.482Z,2.20
2018-10-05T12:16:27.604Z,2.30
2018-10-05T12:19:30.735Z,2.20
2018-10-05T12:22:33.867Z,2.10
2018-10-05T12:25:36.973Z,2.20
2018-10-05T12:28:40.067Z,2.23
2018-10-05T12:31:43.175Z,2.10
2018-10-05T12:34:46.288Z,2.20
2018-10-05T12:37:51.247Z,1.90
2018-10-05T12:40:54.347Z,2.00
2018-10-05T12:43:58.145Z,2.00
2018-10-05T12:47:01.285Z,2.10
2018-10-05T12:50:04.579Z,2.00
2018-10-05T12:53:07.653Z,2.00
2018-10-05T12:56:10.768Z,2.20
2018-10-05T12:59:13.875Z,2.03
2018-10-05T13:02:16.951Z,2.13
2018-10-05T13:05:20.042Z,1.90
2018-10-05T13:08:23.521Z,2.00
2018-10-05T13:11:26.637Z,1.90
2018-10-05T13:14:29.765Z,1.80
2018-10-05T13:17:32.887Z,2.40
2018-10-05T13:20:36.030Z,1.90
2018-10-05T13:23:39.181Z,1.97
2018-10-05T13:26:42.267Z,1.70
2018-10-05T13:29:45.586Z,1.80
2018-10-05T13:32:48.777Z,2.00
2018-10-05T13:35:51.989Z,1.83
2018-10-05T13:38:55.183Z,1.90
2018-10-05T13:41:58.378Z,2.00
2018-10-05T13:45:01.438Z,1.83
2018-10-05T13:48:04.556Z,1.60
2018-10-05T13:51:07.681Z,1.90
2018-10-05T13:54:10.864Z,1.63
2018-10-05T13:57:14.013Z,1.83
2018-10-05T14:00:17.156Z,2.00
2018-10-05T14:03:20.293Z,1.70
2018-10-05T14:06:23.503Z,1.70
2018-10-05T14:09:26.713Z,1.53
2018-10-05T14:12:29.849Z,1.80
2018-10-05T14:15:32.992Z,1.70
2018-10-05T14:18:36.136Z,1.93
2018-10-05T14:21:39.299Z,1.67
2018-10-05T14:24:42.432Z,1.80
2018-10-05T14:27:45.633Z,1.50
2018-10-05T14:30:48.775Z,1.80
2018-10-05T14:33:51.950Z,1.77
2018-10-05T14:36:55.812Z,1.73
2018-10-05T14:39:58.936Z,1.80
2018-10-05T14:43:02.031Z,1.70
2018-10-05T14:46:05.193Z,1.80
2018-10-05T14:49:08.381Z,1.60
2018-10-05T14:52:11.527Z,1.70
2018-10-05T14:55:14.624Z,1.80
2018-10-05T14:58:17.744Z,1.83
2018-10-05T15:01:20.845Z,1.73
2018-10-05T15:04:24.001Z,1.57
2018-10-05T15:07:27.197Z,1.53
2018-10-05T15:10:30.427Z,1.83
2018-10-05T15:13:33.681Z,1.75
2018-10-05T15:16:36.777Z,1.70
2018-10-05T15:19:39.981Z,1.80
2018-10-05T15:22:43.476Z,1.60
2018-10-05T15:25:46.621Z,1.70
2018-10-05T15:28:49.740Z,1.40
2018-10-05T15:31:52.856Z,1.73
2018-10-05T15:34:55.981Z,1.60
2018-10-05T15:37:59.136Z,1.50
2018-10-05T15:41:03.645Z,1.63
2018-10-05T15:44:06.989Z,1.70
2018-10-05T15:47:14.251Z,1.70
2018-10-05T15:50:17.392Z,1.63
2018-10-05T15:53:20.536Z,1.70
2018-10-05T15:56:23.665Z,1.53
2018-10-05T15:59:27.395Z,1.70
2018-10-05T16:02:30.558Z,1.60
2018-10-05T16:05:33.874Z,1.60
2018-10-05T16:08:36.841Z,1.53
2018-10-05T16:11:39.976Z,1.80
2018-10-05T16:14:43.113Z,1.50
2018-10-05T16:17:46.228Z,1.33
2018-10-05T16:20:49.326Z,1.50
2018-10-05T16:23:53.870Z,1.53
2018-10-05T16:26:57.045Z,1.70
2018-10-05T16:30:00.265Z,1.47
2018-10-05T16:33:03.433Z,1.40
2018-10-05T16:36:06.864Z,1.70
2018-10-05T16:39:11.248Z,1.60
2018-10-05T16:42:14.326Z,1.60
2018-10-05T16:45:17.467Z,1.50
2018-10-05T16:48:20.601Z,1.60
2018-10-05T16:51:23.687Z,1.40
2018-10-05T16:54:26.819Z,1.53
2018-10-05T16:57:29.933Z,1.70
2018-10-05T17:00:34.205Z,1.50
2018-10-05T17:03:37.335Z,1.53
2018-10-05T17:06:40.456Z,1.90
2018-10-05T17:09:43.587Z,1.30
2018-10-05T17:12:46.705Z,1.60
2018-10-05T17:15:49.812Z,1.60
2018-10-05T17:18:52.929Z,1.40
2018-10-05T17:21:56.048Z,1.40
2018-10-05T17:24:59.145Z,1.30
2018-10-05T17:28:02.274Z,1.60
2018-10-05T17:31:05.412Z,1.57
2018-10-05T17:34:08.516Z,1.50
2018-10-05T17:37:11.653Z,1.50
2018-10-05T17:40:14.929Z,1.50
2018-10-05T17:43:18.059Z,1.53
2018-10-05T17:46:21.183Z,1.40
2018-10-05T17:49:24.352Z,1.40
2018-10-05T17:52:27.480Z,1.40
2018-10-05T17:55:30.807Z,1.50
2018-10-05T17:58:33.766Z,1.80
2018-10-05T18:01:36.902Z,1.47
2018-10-05T18:04:40.627Z,1.43
2018-10-05T18:07:43.790Z,1.57
2018-10-05T18:10:46.905Z,1.40
2018-10-05T18:13:50.026Z,1.50
2018-10-05T18:16:53.164Z,1.40
2018-10-05T18:19:56.499Z,1.43
2018-10-05T18:22:59.757Z,1.53
2018-10-05T18:26:03.709Z,1.50
2018-10-05T18:29:06.888Z,1.45
2018-10-05T18:32:10.025Z,1.50
2018-10-05T18:35:13.125Z,1.30
2018-10-05T18:38:16.339Z,1.47
2018-10-05T18:41:20.717Z,1.50
2018-10-05T18:44:23.966Z,1.50
2018-10-05T18:47:27.125Z,1.70
2018-10-05T18:50:30.337Z,1.67
2018-10-05T18:53:33.532Z,1.30
2018-10-05T18:56:48.084Z,1.67
2018-10-05T18:59:51.212Z,1.40
2018-10-05T19:02:54.301Z,1.50
2018-10-05T19:05:57.461Z,1.37
2018-10-05T19:09:01.061Z,1.60
2018-10-05T19:12:04.224Z,1.43
2018-10-05T19:15:07.362Z,1.60
2018-10-05T19:18:10.528Z,1.70
2018-10-05T19:21:13.639Z,1.70
2018-10-05T19:24:16.761Z,1.50
2018-10-05T19:27:19.985Z,1.67
2018-10-05T19:30:23.247Z,1.60
2018-10-05T19:33:27.067Z,1.70
2018-10-05T19:36:30.298Z,1.60
2018-10-05T19:39:33.428Z,1.80
2018-10-05T19:42:36.631Z,1.70
2018-10-05T19:45:39.780Z,1.50
2018-10-05T19:48:42.913Z,1.80
2018-10-05T19:51:46.116Z,1.73
2018-10-05T19:54:49.237Z,1.70
2018-10-05T19:57:52.400Z,1.63
2018-10-05T20:00:55.571Z,1.80
2018-10-05T20:03:58.684Z,1.60
2018-10-05T20:07:01.834Z,1.70
2018-10-05T20:10:05.208Z,1.70
2018-10-05T20:13:08.468Z,1.60
2018-10-05T20:16:11.599Z,1.80
2018-10-05T20:19:14.745Z,1.90
2018-10-05T20:22:17.844Z,1.77
2018-10-05T20:25:21.038Z,1.80
2018-10-05T20:28:24.348Z,1.93
2018-10-05T20:31:27.603Z,1.80
2018-10-05T20:34:31.712Z,1.73
2018-10-05T20:37:35.088Z,1.83
2018-10-05T20:40:37.991Z,1.70
2018-10-05T20:43:41.141Z,1.57
2018-10-05T20:46:44.208Z,1.70
2018-10-05T20:49:47.356Z,1.70
2018-10-05T20:52:50.553Z,1.73
2018-10-05T20:55:53.718Z,1.70
2018-10-05T20:58:56.815Z,1.60
2018-10-05T21:01:59.886Z,1.80
2018-10-05T21:05:03.027Z,1.60
2018-10-05T21:08:06.129Z,1.60
2018-10-05T21:11:09.252Z,1.70
2018-10-05T21:14:12.355Z,1.60
2018-10-05T21:17:15.454Z,1.80
2018-10-05T21:20:18.549Z,1.53
2018-10-05T21:23:21.706Z,1.77
2018-10-05T21:26:24.815Z,1.70
2018-10-05T21:29:27.967Z,1.50
2018-10-05T21:32:31.101Z,2.10
2018-10-05T21:35:34.275Z,1.73
2018-10-05T21:38:37.408Z,1.80
2018-10-05T21:41:40.688Z,1.70
2018-10-05T21:44:44.007Z,1.50
2018-10-05T21:47:47.077Z,1.60
2018-10-05T21:50:50.364Z,1.40
2018-10-05T21:53:53.501Z,1.80
2018-10-05T21:56:56.600Z,1.87
2018-10-05T21:59:59.770Z,1.60
2018-10-05T22:03:02.869Z,1.73
2018-10-05T22:06:06.091Z,1.60
2018-10-05T22:09:10.068Z,1.83
2018-10-05T22:12:13.417Z,1.77
2018-10-05T22:15:16.544Z,1.97
2018-10-05T22:18:19.655Z,1.80
2018-10-05T22:21:22.750Z,1.67
2018-10-05T22:24:25.832Z,1.70
2018-10-05T22:27:28.937Z,1.90
2018-10-05T22:30:32.087Z,1.60
2018-10-05T22:33:35.200Z,1.73
2018-10-05T22:36:38.356Z,1.87
2018-10-05T22:39:41.696Z,1.80
2018-10-05T22:42:44.793Z,1.70
2018-10-05T22:45:47.974Z,1.90
2018-10-05T22:48:51.239Z,1.90
2018-10-05T22:51:54.357Z,1.70
2018-10-05T22:54:57.478Z,1.80
2018-10-05T22:58:00.661Z,1.70
2018-10-05T23:01:03.815Z,1.73
2018-10-05T23:04:06.945Z,1.57
2018-10-05T23:07:10.040Z,2.10
2018-10-05T23:10:13.168Z,2.03
2018-10-05T23:13:16.340Z,1.97
2018-10-05T23:16:19.464Z,1.80
2018-10-05T23:19:22.616Z,1.90
2018-10-05T23:22:25.769Z,1.90
2018-10-05T23:25:28.889Z,1.67
2018-10-05T23:28:32.011Z,1.90
2018-10-05T23:31:35.164Z,1.90
2018-10-05T23:34:38.275Z,1.80
2018-10-05T23:37:41.426Z,2.00
2018-10-05T23:40:44.631Z,1.83
2018-10-05T23:43:48.452Z,2.10
2018-10-05T23:46:51.786Z,1.80
2018-10-05T23:49:54.900Z,1.70
2018-10-05T23:52:58.012Z,1.87
2018-10-05T23:56:01.130Z,2.00
2018-10-05T23:59:04.254Z,1.83
